Time;durP1;ratioP1;P1;durP2;ratioP2;P2;SDS_P1;SDS_P2;PMS_P1;PMS_P2;Temp;Humidity;BMP_temperature;BMP_pressure;BME280_temperature;BME280_humidity;BME280_pressure;Samples;Min_cycle;Max_cycle;Signal;HPM_P1;HPM_P2
2022/06/02 00:00:22;;;;;;;12.20;10.43;;;;;;;-145.18;100.00;46677.97;4916670;29;20262;-80
2022/06/02 00:03:27;;;;;;;11.83;10.40;;;;;;;-145.18;100.00;46672.13;4915271;29;20381;-79
2022/06/02 00:06:04;;;;;;;15.97;9.60;;;;;;;-145.18;100.00;46674.06;4857658;29;20280;-79
2022/06/02 00:08:48;;;;;;;12.03;10.20;;;;;;;-145.18;100.00;46679.94;4910458;29;20274;-79
2022/06/02 00:11:19;;;;;;;12.00;10.60;;;;;;;-145.18;100.00;46670.16;4915506;29;20321;-79
2022/06/02 00:14:14;;;;;;;15.37;10.73;;;;;;;-145.18;100.00;46672.13;4915528;29;20276;-79
2022/06/02 00:17:03;;;;;;;13.10;10.60;;;;;;;-145.18;100.00;46676.03;4915666;29;20281;-79
2022/06/02 00:19:44;;;;;;;11.97;9.00;;;;;;;-145.18;100.00;46676.03;4901723;29;20279;-79
2022/06/02 00:22:18;;;;;;;9.60;8.57;;;;;;;-145.18;100.00;46687.75;4915383;29;20269;-79
2022/06/02 00:24:44;;;;;;;11.20;8.80;;;;;;;-145.18;100.00;46679.94;4915684;29;20303;-79
2022/06/02 00:27:22;;;;;;;15.33;11.57;;;;;;;-145.18;100.00;46674.06;4915050;29;20621;-79
2022/06/02 00:30:14;;;;;;;15.70;13.27;;;;;;;-145.18;100.00;46672.13;4915422;29;20032;-79
2022/06/02 00:32:56;;;;;;;19.27;13.80;;;;;;;-145.18;100.00;46670.16;4915350;29;20335;-78
2022/06/02 00:35:31;;;;;;;15.17;12.50;;;;;;;-145.18;100.00;46662.34;4915748;29;20285;-79
2022/06/02 00:38:03;;;;;;;20.93;13.97;;;;;;;-145.18;100.00;46662.34;4914751;29;20281;-79
2022/06/02 00:40:30;;;;;;;17.63;14.50;;;;;;;-145.18;100.00;46670.16;4915742;29;20640;-79
2022/06/02 00:43:18;;;;;;;17.70;13.33;;;;;;;-145.18;100.00;46662.34;4914746;29;20263;-79
2022/06/02 00:45:46;;;;;;;17.83;12.73;;;;;;;-145.18;100.00;46660.41;4915223;29;20302;-79
2022/06/02 00:48:52;;;;;;;16.03;11.83;;;;;;;-145.18;100.00;46666.25;4915048;29;20275;-79
2022/06/02 00:51:29;;;;;;;16.67;12.27;;;;;;;-145.18;100.00;46664.31;4915238;29;20756;-79
2022/06/02 01:00:11;;;;;;;14.10;11.73;;;;;;;-145.18;100.00;46672.13;4914943;29;20322;-79
2022/06/02 01:02:48;;;;;;;15.48;12.82;;;;;;;-145.18;100.00;46670.16;4914605;29;20374;-78
2022/06/02 01:05:18;;;;;;;14.17;12.67;;;;;;;-145.18;100.00;46670.16;4915089;29;20032;-79
2022/06/02 01:08:01;;;;;;;14.47;12.00;;;;;;;-145.18;100.00;46666.25;4914443;29;20293;-78
2022/06/02 01:10:57;;;;;;;16.00;12.63;;;;;;;-145.18;100.00;46666.25;4915270;29;20605;-79
2022/06/02 01:14:04;;;;;;;13.63;12.23;;;;;;;-145.18;100.00;46664.31;4914252;29;20270;-78
2022/06/02 01:16:52;;;;;;;14.63;12.40;;;;;;;-145.18;100.00;46662.34;4907368;29;20756;-78
2022/06/02 01:19:44;;;;;;;15.70;12.77;;;;;;;-145.18;100.00;46668.22;4913861;29;20585;-79
2022/06/02 01:22:25;;;;;;;16.10;13.00;;;;;;;-145.18;100.00;46666.25;4914385;29;20318;-78
2022/06/02 01:25:13;;;;;;;14.97;12.90;;;;;;;-145.18;100.00;46660.41;4914718;29;20309;-79
2022/06/02 01:27:47;;;;;;;17.87;13.07;;;;;;;-145.18;100.00;46660.41;4914262;29;20277;-78
2022/06/02 01:30:37;;;;;;;16.43;13.73;;;;;;;-145.18;100.00;46662.34;4915020;29;20681;-79
2022/06/02 01:33:05;;;;;;;14.17;12.30;;;;;;;-145.18;100.00;46668.22;4912941;29;20920;-78
2022/06/02 01:35:30;;;;;;;12.00;10.13;;;;;;;-145.18;100.00;46664.31;4914721;29;20620;-78
2022/06/02 01:38:06;;;;;;;14.87;11.03;;;;;;;-145.18;100.00;46674.06;4913306;29;20279;-78
2022/06/02 01:40:44;;;;;;;15.87;13.17;;;;;;;-145.18;100.00;46668.22;4914878;29;20040;-78
2022/06/02 01:43:25;;;;;;;15.80;12.23;;;;;;;-145.18;100.00;46660.41;4912932;29;20267;-78
2022/06/02 01:46:14;;;;;;;18.53;14.23;;;;;;;-145.18;100.00;46658.44;4914326;29;20361;-77
2022/06/02 01:49:04;;;;;;;17.20;14.23;;;;;;;-145.18;100.00;46662.34;4914595;29;20358;-78
2022/06/02 01:52:05;;;;;;;18.00;14.13;;;;;;;-145.18;100.00;46660.41;4913034;29;20288;-77
2022/06/02 01:54:39;;;;;;;70.93;13.77;;;;;;;-145.18;100.00;46656.50;4914812;29;20358;-77
2022/06/02 01:57:29;;;;;;;153.33;16.63;;;;;;;-145.18;100.00;46656.50;4914006;29;20275;-77
2022/06/02 02:00:08;;;;;;;40.53;15.27;;;;;;;-145.18;100.00;46660.41;4911387;29;20341;-77
2022/06/02 02:02:42;;;;;;;19.53;13.67;;;;;;;-145.18;100.00;46654.53;5230112;23;20305;-78
2022/06/02 02:05:16;;;;;;;18.07;13.93;;;;;;;-145.18;100.00;46650.63;4946153;28;20381;-78
2022/06/02 02:07:58;;;;;;;18.13;11.90;;;;;;;-145.18;100.00;46654.53;4951354;28;20804;-78
2022/06/02 02:10:39;;;;;;;40.93;18.10;;;;;;;-145.18;100.00;46658.44;4951767;28;20336;-78
2022/06/02 02:13:39;;;;;;;25.90;18.03;;;;;;;-145.18;100.00;46654.53;4932584;29;20743;-78
2022/06/02 02:16:26;;;;;;;27.37;19.73;;;;;;;-145.18;100.00;46656.50;4911602;29;20286;-78
2022/06/02 02:18:58;;;;;;;27.40;18.67;;;;;;;-145.18;100.00;46656.50;4931693;29;20270;-78
2022/06/02 02:21:47;;;;;;;128.20;20.00;;;;;;;-145.18;100.00;46652.59;4933127;29;20674;-78
2022/06/02 02:24:28;;;;;;;183.63;16.37;;;;;;;-145.18;100.00;46652.59;4932385;29;20389;-78
2022/06/02 02:27:02;;;;;;;18.60;11.40;;;;;;;-145.18;100.00;46650.63;4932920;29;20274;-79
2022/06/02 02:29:47;;;;;;;8.20;6.50;;;;;;;-145.18;100.00;46648.69;4933483;29;20276;-79
2022/06/02 02:39:52;;;;;;;13.73;10.97;;;;;;;-145.18;100.00;46648.69;4932231;29;20365;-78
2022/06/02 02:47:15;;;;;;;11.67;10.43;;;;;;;-145.18;100.00;46646.72;4931925;29;20039;-78
2022/06/02 02:49:46;;;;;;;16.57;10.13;;;;;;;-145.18;100.00;46650.63;4934074;29;20293;-77
2022/06/02 02:52:46;;;;;;;15.80;10.53;;;;;;;-145.18;100.00;46646.72;4936374;28;20631;-77
2022/06/02 02:55:21;;;;;;;22.27;16.53;;;;;;;-145.18;100.00;46646.72;4936579;29;20266;-77
2022/06/02 02:58:10;;;;;;;29.02;19.70;;;;;;;-145.18;100.00;46652.59;4936043;29;20273;-77
2022/06/02 03:00:45;;;;;;;26.83;20.67;;;;;;;-145.18;100.00;46648.69;4936090;29;20040;-77
2022/06/02 03:03:19;;;;;;;27.67;20.58;;;;;;;-145.18;100.00;46646.72;4934795;29;20628;-76
2022/06/02 03:05:47;;;;;;;29.10;19.20;;;;;;;-145.18;100.00;46648.69;4952247;29;20034;-76
2022/06/02 03:08:27;;;;;;;29.10;20.17;;;;;;;-145.18;100.00;46646.72;4953670;28;20706;-76
2022/06/02 03:11:01;;;;;;;32.57;20.60;;;;;;;-145.18;100.00;46648.69;4953145;29;20797;-76
2022/06/02 03:13:50;;;;;;;19.07;15.27;;;;;;;-145.18;100.00;46644.78;4954328;29;20273;-76
2022/06/02 03:16:17;;;;;;;24.13;16.37;;;;;;;-145.18;100.00;46644.78;4952355;29;20304;-76
2022/06/02 03:18:45;;;;;;;21.37;16.10;;;;;;;-145.18;100.00;46642.81;4953799;28;20273;-77
2022/06/02 03:21:35;;;;;;;21.07;15.40;;;;;;;-145.18;100.00;46648.69;4954817;28;20290;-76
2022/06/02 03:24:29;;;;;;;18.03;14.97;;;;;;;-145.18;100.00;46646.72;4951499;29;20289;-77
2022/06/02 03:27:17;;;;;;;15.60;11.67;;;;;;;-145.18;100.00;46644.78;4954674;29;20273;-76
2022/06/02 03:30:01;;;;;;;11.00;9.13;;;;;;;-145.18;100.00;46642.81;4926987;29;20300;-77
2022/06/02 03:32:41;;;;;;;16.07;12.23;;;;;;;-145.18;100.00;46642.81;4953265;29;20340;-77
2022/06/02 03:35:07;;;;;;;17.30;14.33;;;;;;;-145.18;100.00;46644.78;4949647;29;20283;-77
2022/06/02 03:37:51;;;;;;;17.00;13.90;;;;;;;-145.18;100.00;46642.81;4953820;28;20276;-76
2022/06/02 03:40:16;;;;;;;17.57;14.17;;;;;;;-145.18;100.00;46642.81;4954697;28;20265;-76
2022/06/02 03:42:54;;;;;;;20.37;14.90;;;;;;;-145.18;100.00;46644.78;4954518;28;20268;-76
2022/06/02 03:45:47;;;;;;;19.57;15.17;;;;;;;-145.18;100.00;46646.72;4953924;29;20130;-77
2022/06/02 03:48:34;;;;;;;23.80;17.03;;;;;;;-145.18;100.00;46646.72;4953872;28;20324;-76
2022/06/02 03:51:11;;;;;;;24.10;17.00;;;;;;;-145.18;100.00;46650.63;4952921;28;20273;-76
2022/06/02 03:54:01;;;;;;;24.27;19.10;;;;;;;-145.18;100.00;46644.78;4943990;29;20261;-76
2022/06/02 03:56:34;;;;;;;29.53;19.73;;;;;;;-145.18;100.00;46644.78;4954030;29;20377;-76
2022/06/02 03:59:15;;;;;;;25.43;19.13;;;;;;;-145.18;100.00;46644.78;4953708;29;20270;-76
2022/06/02 04:01:46;;;;;;;22.43;17.13;;;;;;;-145.18;100.00;46642.81;4949811;28;20746;-77
2022/06/02 04:04:22;;;;;;;24.53;17.97;;;;;;;-145.18;100.00;46646.72;4953517;28;20293;-76
2022/06/02 04:07:27;;;;;;;23.48;16.35;;;;;;;-145.18;100.00;46646.72;4954128;29;20280;-77
2022/06/02 04:10:18;;;;;;;20.93;15.33;;;;;;;-145.18;100.00;46644.78;4953950;28;20031;-75
2022/06/02 04:16:11;;;;;;;19.77;14.90;;;;;;;-145.18;100.00;46644.78;4953910;29;20279;-77
2022/06/02 04:18:45;;;;;;;19.07;14.83;;;;;;;-145.18;100.00;46646.72;4951747;29;20281;-78
2022/06/02 04:21:25;;;;;;;14.80;12.57;;;;;;;-145.18;100.00;46640.88;4949994;29;20827;-77
2022/06/02 04:23:59;;;;;;;15.40;12.47;;;;;;;-145.18;100.00;46642.81;4953448;28;20273;-78
2022/06/02 04:26:56;;;;;;;19.27;15.27;;;;;;;-145.18;100.00;46644.78;4953612;29;20285;-78
2022/06/02 04:29:37;;;;;;;20.77;16.25;;;;;;;-145.18;100.00;46648.69;4952731;28;20353;-78
2022/06/02 04:32:16;;;;;;;23.53;16.47;;;;;;;-145.18;100.00;46646.72;4953069;29;20034;-78
2022/06/02 04:34:50;;;;;;;20.10;15.87;;;;;;;-145.18;100.00;46648.69;4952915;28;20809;-78
2022/06/02 04:37:30;;;;;;;20.30;15.80;;;;;;;-145.18;100.00;46644.78;4952692;28;20276;-78
2022/06/02 04:40:33;;;;;;;23.43;17.90;;;;;;;-145.18;100.00;46644.78;4953487;29;20764;-77
2022/06/02 04:43:17;;;;;;;24.30;17.30;;;;;;;-145.18;100.00;46646.72;4952327;29;20284;-77
2022/06/02 04:46:12;;;;;;;20.90;16.47;;;;;;;-145.18;100.00;46644.78;4951821;29;20752;-78
2022/06/02 04:48:52;;;;;;;20.33;16.30;;;;;;;-145.18;100.00;46638.91;4953451;28;20634;-78
2022/06/02 04:51:41;;;;;;;21.67;15.67;;;;;;;-145.18;100.00;46646.72;4952518;29;20277;-78
2022/06/02 04:54:25;;;;;;;25.07;18.13;;;;;;;-145.18;100.00;46642.81;4952283;28;20774;-78
2022/06/02 04:57:21;;;;;;;20.77;15.43;;;;;;;-145.18;100.00;46642.81;4949502;29;20281;-77
2022/06/02 04:59:57;;;;;;;23.13;17.63;;;;;;;-145.18;100.00;46644.78;4951064;28;20376;-78
2022/06/02 05:02:33;;;;;;;24.60;18.47;;;;;;;-145.18;100.00;46642.81;4952735;28;20289;-78
2022/06/02 05:05:19;;;;;;;25.90;17.83;;;;;;;-145.18;100.00;46635.00;4952954;28;20292;-78
2022/06/02 05:07:55;;;;;;;23.97;18.33;;;;;;;-145.18;100.00;46640.88;4952923;29;20429;-78
2022/06/02 05:10:27;;;;;;;;;;;;;;;-145.18;100.00;46642.81;4953412;28;20031;-78
2022/06/02 05:13:26;;;;;;;22.27;17.40;;;;;;;-145.18;100.00;46640.88;4951352;28;19925;-78
2022/06/02 05:16:01;;;;;;;23.67;17.43;;;;;;;-145.18;100.00;46636.94;4952677;29;20428;-78
2022/06/02 05:18:44;;;;;;;25.17;18.70;;;;;;;-145.18;100.00;46640.88;4952855;29;20266;-78
2022/06/02 05:21:44;;;;;;;25.17;18.97;;;;;;;-145.18;100.00;46638.91;4946290;29;20276;-79
2022/06/02 05:24:27;;;;;;;25.63;19.30;;;;;;;-145.18;100.00;46640.88;4944643;29;20290;-79
2022/06/02 05:27:38;;;;;;;26.07;20.20;;;;;;;-145.18;100.00;46640.88;4944893;29;20792;-79
2022/06/02 05:30:13;;;;;;;28.00;20.87;;;;;;;-145.18;100.00;46636.94;4926615;28;20357;-76
2022/06/02 05:33:00;;;;;;;31.75;20.58;;;;;;;-145.18;100.00;46640.88;4934567;28;20276;-76
2022/06/02 05:35:47;;;;;;;26.00;19.73;;;;;;;-145.18;100.00;46638.91;4933397;29;20038;-76
2022/06/02 05:38:13;;;;;;;;;;;;;;;-145.18;100.00;46640.88;4941317;29;20399;-76
2022/06/02 05:40:43;;;;;;;29.90;22.00;;;;;;;-145.18;100.00;46638.91;4952843;29;20005;-76
2022/06/02 05:43:32;;;;;;;30.67;23.03;;;;;;;-145.18;100.00;46636.94;4951792;28;20283;-76
2022/06/02 05:46:27;;;;;;;32.03;22.87;;;;;;;-145.18;100.00;46636.94;4936973;28;20309;-79
2022/06/02 05:49:02;;;;;;;28.63;23.17;;;;;;;-145.18;100.00;46640.88;4952160;28;20325;-76
2022/06/02 05:51:59;;;;;;;32.97;23.47;;;;;;;-145.18;100.00;46642.81;4952613;29;20268;-76
2022/06/02 05:54:35;;;;;;;28.80;23.03;;;;;;;-145.18;100.00;46638.91;4917916;28;20658;-79
2022/06/02 05:57:30;;;;;;;30.13;23.20;;;;;;;-145.18;100.00;46638.91;4942631;29;20282;-76
2022/06/02 06:00:11;;;;;;;28.17;21.90;;;;;;;-145.18;100.00;46638.91;4952148;28;20281;-76
2022/06/02 06:03:08;;;;;;;27.30;21.27;;;;;;;-145.18;100.00;46640.88;4961169;28;20348;-79
2022/06/02 06:06:03;;;;;;;28.00;20.87;;;;;;;-145.18;100.00;46640.88;4952070;28;20492;-79
2022/06/02 06:08:38;;;;;;;26.87;19.97;;;;;;;-145.18;100.00;46642.81;4945886;28;20373;-79
2022/06/02 06:11:20;;;;;;;21.13;18.37;;;;;;;-145.18;100.00;46642.81;4932770;29;20747;-77
2022/06/02 06:14:01;;;;;;;22.53;18.03;;;;;;;-145.18;100.00;46648.69;4932862;29;20032;-77
2022/06/02 06:16:40;;;;;;;22.17;16.77;;;;;;;-145.18;100.00;46646.72;4933332;29;20739;-77
2022/06/02 06:19:22;;;;;;;16.53;13.30;;;;;;;-145.18;100.00;46646.72;4932381;29;20039;-77
2022/06/02 06:22:02;;;;;;;12.70;9.17;;;;;;;-145.18;100.00;46654.53;4947069;29;20519;-77
2022/06/02 06:24:45;;;;;;;17.07;11.20;;;;;;;-145.18;100.00;46666.25;4951016;28;20122;-77
2022/06/02 06:27:14;;;;;;;12.00;9.63;;;;;;;-145.18;100.00;46662.34;4955751;29;20031;-77
2022/06/02 06:30:01;;;;;;;14.50;9.70;;;;;;;-145.18;100.00;46656.50;4955582;29;20035;-77
2022/06/02 06:32:54;;;;;;;18.47;11.13;;;;;;;-145.18;100.00;46656.50;4956206;28;20113;-76
2022/06/02 06:35:42;;;;;;;14.20;11.23;;;;;;;-145.18;100.00;46642.81;4955855;29;20618;-79
2022/06/02 06:38:22;;;;;;;14.10;12.07;;;;;;;-145.18;100.00;46644.78;4953978;29;20113;-79
2022/06/02 06:41:06;;;;;;;16.07;11.00;;;;;;;-145.18;100.00;46636.94;4970559;28;20067;-77
2022/06/02 06:43:53;;;;;;;13.40;9.80;;;;;;;-145.18;100.00;46607.66;4955701;28;20027;-77
2022/06/02 06:46:30;;;;;;;14.83;7.37;;;;;;;-145.18;100.00;46574.44;4955160;28;20155;-77
2022/06/02 06:49:10;;;;;;;8.60;6.43;;;;;;;-145.18;100.00;46543.19;4955169;28;20042;-77
2022/06/02 06:52:04;;;;;;;9.63;7.43;;;;;;;-145.18;100.00;46545.16;4955540;29;20542;-77
2022/06/02 06:55:00;;;;;;;8.97;7.20;;;;;;;-145.18;100.00;46539.28;4955526;28;20396;-77
2022/06/02 06:57:47;;;;;;;8.00;5.53;;;;;;;-145.18;100.00;46545.16;4955029;28;20034;-77
2022/06/02 07:00:21;;;;;;;6.43;5.37;;;;;;;-145.18;100.00;46564.69;4954929;28;20396;-77
2022/06/02 07:03:07;;;;;;;10.70;5.87;;;;;;;-145.18;100.00;46556.88;4935837;29;20047;-77
2022/06/02 07:05:42;;;;;;;10.55;6.55;;;;;;;-145.18;100.00;46570.53;4936326;29;20306;-77
2022/06/02 07:08:50;;;;;;;7.50;5.63;;;;;;;-145.18;100.00;46562.72;4935701;29;20044;-77
2022/06/02 07:14:40;;;;;;;10.40;6.80;;;;;;;-145.18;100.00;46564.69;4876343;29;20092;-78
2022/06/02 07:17:50;;;;;;;9.50;7.60;;;;;;;-145.18;100.00;46568.59;4927841;29;20043;-78
2022/06/02 07:20:22;;;;;;;9.03;5.10;;;;;;;-145.18;100.00;46568.59;4939410;29;20019;-78
2022/06/02 07:22:50;;;;;;;7.97;7.17;;;;;;;-145.18;100.00;46570.53;4955102;28;20035;-78
2022/06/02 07:25:29;;;;;;;9.23;6.27;;;;;;;-145.18;100.00;46584.22;4954462;28;20031;-78
2022/06/02 07:28:19;;;;;;;8.20;5.60;;;;;;;-145.18;100.00;46582.25;4954471;28;20031;-78
2022/06/02 07:31:02;;;;;;;7.10;5.60;;;;;;;-145.18;100.00;46595.94;4955450;28;20154;-78
2022/06/02 07:33:33;;;;;;;11.93;6.30;;;;;;;-145.18;100.00;46601.78;4954490;28;20055;-78
2022/06/02 07:36:16;;;;;;;7.50;5.53;;;;;;;-145.18;100.00;46588.13;4953154;28;20031;-78
2022/06/02 07:38:44;;;;;;;6.83;5.70;;;;;;;-145.18;100.00;46593.97;4954312;28;20618;-78
2022/06/02 07:41:42;;;;;;;6.97;5.87;;;;;;;-145.18;100.00;46609.59;4954422;29;20387;-78
2022/06/02 07:44:25;;;;;;;8.77;5.67;;;;;;;-145.18;100.00;46635.00;4950774;29;20114;-78
2022/06/02 07:47:09;;;;;;;6.97;4.23;;;;;;;-145.18;100.00;46605.69;4954626;28;20455;-78
2022/06/02 07:49:55;;;;;;;7.20;5.00;;;;;;;-145.18;100.00;46658.44;4954275;29;20118;-78
2022/06/02 07:52:20;;;;;;;;;;;;;;;-145.18;100.00;46679.94;4954654;28;20715;-78
2022/06/02 07:55:00;;;;;;;6.53;5.30;;;;;;;-145.18;100.00;46672.13;4954028;29;19918;-79
2022/06/02 07:57:44;;;;;;;7.53;4.93;;;;;;;-145.18;100.00;46676.03;4954143;28;20163;-78
2022/06/02 08:00:15;;;;;;;6.67;5.43;;;;;;;-145.18;100.00;46642.81;4953923;28;20030;-79
2022/06/02 08:03:02;;;;;;;7.60;5.83;;;;;;;-145.18;100.00;46646.72;4953596;28;20055;-79
2022/06/02 08:06:03;;;;;;;9.03;5.27;;;;;;;-145.18;100.00;46715.09;4952538;29;20699;-79
2022/06/02 08:08:40;;;;;;;9.63;4.60;;;;;;;-145.18;100.00;46711.19;4953518;28;20448;-79
2022/06/02 08:11:20;;;;;;;6.23;5.07;;;;;;;-145.18;100.00;46677.97;4954124;28;20115;-79
2022/06/02 08:14:00;;;;;;;12.93;6.70;;;;;;;-145.18;100.00;46681.88;4953381;28;20031;-79
2022/06/02 08:17:00;;;;;;;9.03;6.50;;;;;;;-145.18;100.00;46677.97;4953540;28;20069;-79
2022/06/02 08:19:41;;;;;;;10.80;6.23;;;;;;;-145.18;100.00;46746.34;4953349;28;20045;-78
2022/06/02 08:22:15;;;;;;;8.30;6.07;;;;;;;-145.18;100.00;46668.22;4952351;29;20122;-79
2022/06/02 08:24:59;;;;;;;8.27;6.07;;;;;;;-145.18;100.00;46654.53;4953221;28;20034;-79
2022/06/02 08:27:38;;;;;;;9.37;4.93;;;;;;;-145.18;100.00;46681.88;4953740;28;20031;-79
2022/06/02 08:30:40;;;;;;;6.47;5.23;;;;;;;-145.18;100.00;47156.56;4952966;28;20042;-79
2022/06/02 08:33:27;;;;;;;6.47;5.40;;;;;;;-145.18;100.00;46687.75;4940740;28;20627;-79
2022/06/02 08:36:12;;;;;;;5.90;5.07;;;;;;;-145.18;100.00;47246.44;4953512;29;20027;-79
2022/06/02 08:38:58;;;;;;;10.40;6.00;;;;;;;-145.18;100.00;47189.78;4952731;28;20497;-80
2022/06/02 08:41:42;;;;;;;8.43;6.20;;;;;;;-145.18;100.00;47265.97;4953251;28;20046;-79
2022/06/02 08:44:35;;;;;;;8.40;5.40;;;;;;;-145.18;100.00;47172.19;4952806;29;20035;-80
2022/06/02 08:47:12;;;;;;;10.30;5.07;;;;;;;-145.18;100.00;47164.38;4952708;28;20045;-79
2022/06/02 08:50:00;;;;;;;7.77;4.93;;;;;;;-145.18;100.00;47189.78;4952705;28;20024;-80
2022/06/02 08:52:25;;;;;;;6.80;5.33;;;;;;;-145.18;100.00;47195.66;4953585;28;20117;-79
2022/06/02 08:55:25;;;;;;;5.37;3.67;;;;;;;-145.18;100.00;47195.66;4953040;29;20556;-79
2022/06/02 08:58:06;;;;;;;6.07;4.00;;;;;;;-145.18;100.00;47164.38;4953441;28;20554;-80
2022/06/02 09:01:09;;;;;;;7.00;4.10;;;;;;;-145.18;100.00;47156.56;4953527;28;20039;-80
2022/06/02 09:03:56;;;;;;;5.33;2.73;;;;;;;-145.18;100.00;47129.22;4953626;28;20055;-80
2022/06/02 09:06:39;;;;;;;5.43;3.07;;;;;;;-145.18;100.00;47131.19;4953888;28;20086;-79
2022/06/02 09:09:23;;;;;;;5.00;3.60;;;;;;;-145.18;100.00;47150.72;4953337;28;20526;-79
2022/06/02 09:12:07;;;;;;;5.33;4.00;;;;;;;-145.18;100.00;47131.19;4953689;29;20539;-79
2022/06/02 09:14:48;;;;;;;7.00;3.10;;;;;;;-145.18;100.00;47135.09;4953408;28;20031;-79
2022/06/02 09:17:28;;;;;;;5.63;2.70;;;;;;;-145.18;100.00;47127.28;4952979;28;20041;-79
2022/06/02 09:20:26;;;;;;;6.07;3.10;;;;;;;-145.18;100.00;47125.31;4952706;28;20035;-79
2022/06/02 09:23:10;;;;;;;3.77;2.90;;;;;;;-145.18;100.00;47113.59;4952927;28;20469;-79
2022/06/02 09:25:56;;;;;;;6.28;4.90;;;;;;;-145.18;100.00;47133.13;4952164;28;20051;-78
2022/06/02 09:28:21;;;;;;;5.03;4.00;;;;;;;-145.18;100.00;47142.91;4952190;28;20035;-79
2022/06/02 09:31:16;;;;;;;5.33;3.60;;;;;;;-145.18;100.00;47125.31;4952657;29;20027;-78
2022/06/02 09:34:09;;;;;;;5.63;4.13;;;;;;;-145.18;100.00;47117.50;4952432;28;20038;-78
2022/06/02 09:37:12;;;;;;;8.30;3.03;;;;;;;-145.18;100.00;47111.66;4952964;28;20047;-78
2022/06/02 09:40:01;;;;;;;5.93;4.47;;;;;;;-145.18;100.00;47109.69;4931441;28;20052;-78
2022/06/02 09:42:45;;;;;;;5.83;4.03;;;;;;;-145.18;100.00;47105.78;4951591;29;20035;-78
2022/06/02 09:45:27;;;;;;;7.07;4.80;;;;;;;-145.18;100.00;47115.56;4952095;28;20023;-78
2022/06/02 09:48:14;;;;;;;7.60;3.90;;;;;;;-145.18;100.00;47109.69;4952251;28;20027;-78
2022/06/02 09:50:50;;;;;;;6.70;4.93;;;;;;;-145.18;100.00;47097.97;4952187;28;20522;-78
2022/06/02 09:53:31;;;;;;;7.47;5.40;;;;;;;-145.18;100.00;47109.69;4952646;28;20027;-79
2022/06/02 09:56:27;;;;;;;8.07;5.20;;;;;;;-145.18;100.00;47131.19;4952388;28;20027;-79
2022/06/02 09:59:03;;;;;;;6.88;5.43;;;;;;;-145.18;100.00;47129.22;4951278;28;20030;-81
2022/06/02 10:01:44;;;;;;;7.97;5.50;;;;;;;-145.18;100.00;47129.22;4952699;28;20030;-81
2022/06/02 10:04:15;;;;;;;6.47;4.60;;;;;;;-145.18;100.00;47137.03;4951802;28;20097;-79
2022/06/02 10:06:47;;;;;;;6.97;4.87;;;;;;;-145.18;100.00;47142.91;4952455;28;20046;-81
2022/06/02 10:09:19;;;;;;;10.77;5.97;;;;;;;-145.18;100.00;47144.84;4951795;29;20042;-79
2022/06/02 10:15:02;;;;;;;4.97;3.00;;;;;;;-145.18;100.00;47107.72;4951777;29;20061;-78
2022/06/02 10:17:46;;;;;;;5.87;5.03;;;;;;;-145.18;100.00;47125.31;4952395;28;20456;-77
2022/06/02 10:20:32;;;;;;;4.10;3.70;;;;;;;-145.18;100.00;47133.13;4951582;29;20114;-77
2022/06/02 10:23:06;;;;;;;6.68;4.85;;;;;;;-145.18;100.00;47131.19;4952084;28;20477;-77
2022/06/02 10:25:47;;;;;;;5.97;4.90;;;;;;;-145.18;100.00;47109.69;4951979;28;20038;-77
2022/06/02 10:28:13;;;;;;;6.63;5.20;;;;;;;-145.18;100.00;47127.28;4952283;28;20070;-77
2022/06/02 10:31:12;;;;;;;6.20;4.60;;;;;;;-145.18;100.00;47121.41;4951754;28;20031;-77
2022/06/02 10:33:52;;;;;;;5.87;4.83;;;;;;;-145.18;100.00;47084.28;4951705;28;20162;-80
2022/06/02 10:36:45;;;;;;;5.83;4.60;;;;;;;-145.18;100.00;47076.47;4951833;28;20508;-78
2022/06/02 10:39:16;;;;;;;6.87;5.03;;;;;;;-145.18;100.00;47092.09;4950030;29;20388;-77
2022/06/02 10:41:59;;;;;;;5.83;5.23;;;;;;;-145.18;100.00;47101.88;4952005;28;20031;-78
2022/06/02 10:44:47;;;;;;;5.97;4.57;;;;;;;-145.18;100.00;47078.44;4951284;29;20047;-77
2022/06/02 10:47:30;;;;;;;9.73;4.70;;;;;;;-145.18;100.00;47072.56;4951597;28;20209;-78
2022/06/02 10:50:29;;;;;;;8.50;4.87;;;;;;;-145.18;100.00;47068.66;4951539;28;20023;-78
2022/06/02 10:53:03;;;;;;;8.27;5.73;;;;;;;-145.18;100.00;47064.75;4952194;28;20031;-77
2022/06/02 10:56:00;;;;;;;8.30;4.27;;;;;;;-145.18;100.00;47062.81;4951654;28;20110;-77
2022/06/02 10:58:57;;;;;;;6.37;5.13;;;;;;;-145.18;100.00;47053.03;4966667;28;20572;-77
2022/06/02 11:01:37;;;;;;;7.47;5.03;;;;;;;-145.18;100.00;47051.09;4951506;28;20034;-76
2022/06/02 11:04:49;;;;;;;8.57;4.57;;;;;;;-145.18;100.00;47094.06;4950406;28;20137;-77
2022/06/02 11:07:53;;;;;;;4.33;3.90;;;;;;;-145.18;100.00;47103.81;4951809;28;20489;-76
2022/06/02 11:10:49;;;;;;;6.53;4.70;;;;;;;-145.18;100.00;47049.13;4951987;28;20033;-77
2022/06/02 11:13:50;;;;;;;5.10;4.40;;;;;;;-145.18;100.00;47041.31;4955130;29;20032;-77
2022/06/02 11:16:52;;;;;;;5.13;4.03;;;;;;;-145.18;100.00;47066.72;4954924;28;20035;-76
2022/06/02 11:19:26;;;;;;;6.27;4.87;;;;;;;-145.18;100.00;47043.28;4954519;28;20038;-77
2022/06/02 11:22:13;;;;;;;5.83;5.23;;;;;;;-145.18;100.00;47027.63;4955145;28;20133;-76
2022/06/02 11:25:00;;;;;;;5.70;4.60;;;;;;;-145.18;100.00;47039.34;4954810;28;20799;-77
2022/06/02 11:27:41;;;;;;;6.23;5.33;;;;;;;-145.18;100.00;47047.19;4954777;28;20051;-77
2022/06/02 11:30:27;;;;;;;8.50;5.37;;;;;;;-145.18;100.00;47039.34;4954617;28;20399;-77
2022/06/02 11:33:05;;;;;;;6.00;5.10;;;;;;;-145.18;100.00;47021.78;4955125;28;20043;-77
2022/06/02 11:35:36;;;;;;;6.90;5.50;;;;;;;-145.18;100.00;47041.31;4954555;28;20036;-77
2022/06/02 11:38:28;;;;;;;7.37;5.10;;;;;;;-145.18;100.00;47041.31;4954615;28;20416;-77
2022/06/02 11:40:56;;;;;;;7.30;6.60;;;;;;;-145.18;100.00;47019.81;4954325;28;20038;-77
2022/06/02 11:43:40;;;;;;;6.73;6.07;;;;;;;-145.18;100.00;47025.69;4954034;28;20086;-77
2022/06/02 11:46:18;;;;;;;8.20;6.17;;;;;;;-145.18;100.00;47019.81;4954034;28;20062;-77
2022/06/02 11:49:00;;;;;;;5.63;5.03;;;;;;;-145.18;100.00;47012.00;4948127;28;20040;-77
2022/06/02 11:51:54;;;;;;;7.90;5.50;;;;;;;-145.18;100.00;47008.09;4943660;29;20086;-77
2022/06/02 11:54:56;;;;;;;6.40;5.80;;;;;;;-145.18;100.00;47006.16;4944690;29;20416;-77
2022/06/02 11:57:46;;;;;;;9.73;6.00;;;;;;;-145.18;99.19;46980.75;4944887;29;20481;-77
2022/06/02 12:00:18;;;;;;;6.60;5.90;;;;;;;-145.18;95.26;46992.47;4934232;29;20043;-77
2022/06/02 12:02:57;;;;;;;8.87;6.00;;;;;;;-145.18;91.24;47027.63;4934841;29;20048;-77
2022/06/02 12:06:05;;;;;;;7.70;5.60;;;;;;;-145.18;99.94;47010.06;4933980;29;20040;-77
2022/06/02 12:08:37;;;;;;;7.57;6.37;;;;;;;-145.18;100.00;47019.81;4924300;29;20481;-77
2022/06/02 12:11:08;;;;;;;9.23;6.60;;;;;;;-145.18;100.00;47013.97;4934197;29;20111;-76
2022/06/02 12:14:02;;;;;;;6.93;6.23;;;;;;;-145.18;100.00;47015.91;4935176;29;20031;-77
2022/06/02 12:16:46;;;;;;;6.70;6.00;;;;;;;-145.18;100.00;47015.91;4934906;29;20087;-76
2022/06/02 12:19:30;;;;;;;8.47;6.20;;;;;;;-145.18;100.00;47019.81;4934408;29;20031;-77
2022/06/02 12:22:13;;;;;;;6.73;6.07;;;;;;;-145.18;98.60;47019.81;4950593;28;20035;-77
2022/06/02 12:25:02;;;;;;;5.53;5.00;;;;;;;-145.18;93.83;47010.06;4953723;29;20699;-77
2022/06/02 12:27:46;;;;;;;5.83;5.33;;;;;;;-145.18;95.49;46980.75;4951270;28;20027;-77
2022/06/02 12:30:29;;;;;;;5.27;4.83;;;;;;;-145.18;100.00;47002.25;4952089;29;20019;-77
2022/06/02 12:33:16;;;;;;;4.97;4.10;;;;;;;-145.18;98.27;47004.19;4953708;29;20515;-77
2022/06/02 12:36:19;;;;;;;6.27;3.57;;;;;;;-145.18;98.51;46996.38;4953263;29;20034;-77
2022/06/02 12:39:21;;;;;;;6.43;5.03;;;;;;;-145.18;88.28;47013.97;4953543;29;20035;-77
2022/06/02 12:42:31;;;;;;;6.90;4.23;;;;;;;-145.18;100.00;46996.38;4953493;29;20530;-78